createdAt,value
2016-10-06T00:00:01.619Z,10.47
2016-10-06T00:01:11.891Z,10.46
2016-10-06T00:02:21.899Z,10.44
2016-10-06T00:03:31.552Z,10.46
2016-10-06T00:04:41.534Z,10.44
2016-10-06T00:05:51.523Z,10.47
2016-10-06T00:07:01.490Z,10.44
2016-10-06T00:08:11.474Z,10.47
2016-10-06T00:09:21.756Z,10.38
2016-10-06T00:10:32.030Z,10.35
2016-10-06T00:11:42.000Z,10.33
2016-10-06T00:12:51.988Z,10.36
2016-10-06T00:14:02.283Z,10.36
2016-10-06T00:15:12.584Z,10.36
2016-10-06T00:16:22.880Z,10.36
2016-10-06T00:17:33.147Z,10.38
2016-10-06T00:18:43.120Z,10.38
2016-10-06T00:19:52.471Z,10.35
2016-10-06T00:21:02.131Z,10.42
2016-10-06T00:22:12.111Z,10.33
2016-10-06T00:23:21.776Z,10.33
2016-10-06T00:24:31.754Z,10.35
2016-10-06T00:25:41.411Z,10.36
2016-10-06T00:26:51.692Z,10.38
2016-10-06T00:28:01.672Z,10.39
2016-10-06T00:29:11.951Z,10.32
2016-10-06T00:30:22.448Z,10.33
2016-10-06T00:31:32.749Z,10.35
2016-10-06T00:32:43.025Z,10.35
2016-10-06T00:33:53.308Z,10.41
2016-10-06T00:35:03.594Z,10.42
2016-10-06T00:36:13.256Z,10.32
2016-10-06T00:37:23.229Z,10.28
2016-10-06T00:38:33.520Z,10.23
2016-10-06T00:39:43.507Z,10.21
2016-10-06T00:40:53.808Z,10.25
2016-10-06T00:42:03.784Z,10.28
2016-10-06T00:43:13.763Z,10.2
2016-10-06T00:44:23.725Z,10.14
2016-10-06T00:45:33.700Z,10.13
2016-10-06T00:46:43.996Z,10.15
2016-10-06T00:47:53.994Z,10.14
2016-10-06T00:49:03.985Z,10.11
2016-10-06T00:50:14.303Z,10.08
2016-10-06T00:51:24.279Z,10.11
2016-10-06T00:52:34.591Z,10.13
2016-10-06T00:53:44.259Z,10.13
2016-10-06T00:54:53.929Z,10.11
2016-10-06T00:56:03.612Z,10.11
2016-10-06T00:57:13.887Z,10.11
2016-10-06T00:58:23.871Z,10.11
2016-10-06T00:59:34.148Z,9.99
2016-10-06T01:00:44.448Z,10.03
2016-10-06T01:01:54.430Z,10.08
2016-10-06T01:03:04.094Z,10.02
2016-10-06T01:04:14.084Z,10.05
2016-10-06T01:05:24.371Z,10.03
2016-10-06T01:06:34.037Z,10.11
2016-10-06T01:07:44.015Z,10.14
2016-10-06T01:08:54.522Z,10.17
2016-10-06T01:10:04.815Z,10.14
2016-10-06T01:11:14.490Z,10.15
2016-10-06T01:12:24.178Z,10.14
2016-10-06T01:13:34.168Z,10.13
2016-10-06T01:14:44.451Z,10.11
2016-10-06T01:15:54.426Z,10.13
2016-10-06T01:17:04.703Z,10
2016-10-06T01:18:14.366Z,10.11
2016-10-06T01:19:24.347Z,10.08
2016-10-06T01:20:34.315Z,10.11
2016-10-06T01:21:44.595Z,10.13
2016-10-06T01:22:54.577Z,10.13
2016-10-06T01:24:04.853Z,10.03
2016-10-06T01:25:14.821Z,10.11
2016-10-06T01:26:24.793Z,10.11
2016-10-06T01:27:35.065Z,10.18
2016-10-06T01:28:45.346Z,10.13
2016-10-06T01:29:55.325Z,10.2
2016-10-06T01:31:05.002Z,10.13
2016-10-06T01:32:15.308Z,10.17
2016-10-06T01:33:25.603Z,10.11
2016-10-06T01:34:35.577Z,10.2
2016-10-06T01:35:45.551Z,10.18
2016-10-06T01:36:55.533Z,10.15
2016-10-06T01:38:05.816Z,10.21
2016-10-06T01:39:15.490Z,10.25
2016-10-06T01:40:25.779Z,10.23
2016-10-06T01:41:36.059Z,10.17
2016-10-06T01:42:46.339Z,10.18
2016-10-06T01:43:56.325Z,10.25
2016-10-06T01:45:06.610Z,10.32
2016-10-06T01:46:16.580Z,10.29
2016-10-06T01:47:26.864Z,10.31
2016-10-06T01:48:36.836Z,10.21
2016-10-06T01:49:46.807Z,10.21
2016-10-06T01:50:56.778Z,10.25
2016-10-06T01:52:07.060Z,10.15
2016-10-06T01:53:16.727Z,10.23
2016-10-06T01:54:26.700Z,10.14
2016-10-06T01:55:36.677Z,10.21
2016-10-06T01:56:46.648Z,10.23
2016-10-06T01:57:56.311Z,10.21
2016-10-06T01:59:06.292Z,10.23
2016-10-06T02:00:16.582Z,10.28
2016-10-06T02:01:26.562Z,10.28
2016-10-06T02:02:36.836Z,10.28
2016-10-06T02:03:46.812Z,10.28
2016-10-06T02:04:57.089Z,10.32
2016-10-06T02:06:07.392Z,10.26
2016-10-06T02:07:17.667Z,10.21
2016-10-06T02:08:27.330Z,10.28
2016-10-06T02:09:37.286Z,10.31
2016-10-06T02:10:47.287Z,10.31
2016-10-06T02:11:57.256Z,10.36
2016-10-06T02:13:06.939Z,10.23
2016-10-06T02:14:16.913Z,10.32
2016-10-06T02:15:27.198Z,10.29
2016-10-06T02:16:37.187Z,10.33
2016-10-06T02:17:47.178Z,10.33
2016-10-06T02:18:57.451Z,10.35
2016-10-06T02:20:07.742Z,10.38
2016-10-06T02:21:17.425Z,10.35
2016-10-06T02:22:27.401Z,10.38
2016-10-06T02:23:37.717Z,10.41
2016-10-06T02:24:47.374Z,10.39
2016-10-06T02:25:57.671Z,10.38
2016-10-06T02:27:07.642Z,10.33
2016-10-06T02:28:17.923Z,10.32
2016-10-06T02:29:27.891Z,10.31
2016-10-06T02:30:38.178Z,10.36
2016-10-06T02:31:48.170Z,10.39
2016-10-06T02:32:58.145Z,10.42
2016-10-06T02:34:08.127Z,10.39
2016-10-06T02:35:18.395Z,10.39
2016-10-06T02:36:28.687Z,10.36
2016-10-06T02:37:38.652Z,10.25
2016-10-06T02:38:48.936Z,10.31
2016-10-06T02:39:58.597Z,10.32
2016-10-06T02:41:08.574Z,10.32
2016-10-06T02:42:18.873Z,10.28
2016-10-06T02:43:29.293Z,10.23
2016-10-06T02:44:39.292Z,10.25
2016-10-06T02:45:49.575Z,10.28
2016-10-06T02:46:59.543Z,10.28
2016-10-06T02:48:09.825Z,10.29
2016-10-06T02:49:19.792Z,10.29
2016-10-06T02:50:30.062Z,10.23
2016-10-06T02:51:40.024Z,10.28
2016-10-06T02:52:49.685Z,10.25
2016-10-06T02:53:59.958Z,10.29
2016-10-06T02:55:10.240Z,10.32
2016-10-06T02:56:20.536Z,10.29
2016-10-06T02:57:30.834Z,10.29
2016-10-06T02:58:41.128Z,10.29
2016-10-06T02:59:51.106Z,10.18
2016-10-06T03:01:01.072Z,10.25
2016-10-06T03:32:27.918Z,7.89
2016-10-06T03:33:37.875Z,7.92
2016-10-06T03:34:48.146Z,7.95
2016-10-06T03:35:58.428Z,7.96
2016-10-06T03:37:07.784Z,8.04
2016-10-06T03:38:18.077Z,8.22
2016-10-06T03:39:28.058Z,8.34
2016-10-06T03:40:38.035Z,8.36
2016-10-06T03:41:48.031Z,8.58
2016-10-06T03:42:58.344Z,8.74
2016-10-06T03:44:08.614Z,8.79
2016-10-06T03:45:18.941Z,9.04
2016-10-06T03:46:28.923Z,9.14
2016-10-06T03:47:39.230Z,9.24
2016-10-06T03:48:49.526Z,9.41
2016-10-06T03:49:59.497Z,9.39
2016-10-06T03:51:09.786Z,9.57
2016-10-06T03:52:20.057Z,9.64
2016-10-06T03:53:30.369Z,9.75
2016-10-06T03:54:40.030Z,9.81
2016-10-06T03:55:50.315Z,9.8
2016-10-06T03:57:00.291Z,9.85
2016-10-06T03:58:10.260Z,9.98
2016-10-06T03:59:20.231Z,9.93
2016-10-06T04:00:30.257Z,10.02
2016-10-06T04:01:40.219Z,10.14
2016-10-06T04:02:50.501Z,10.13
2016-10-06T04:04:00.476Z,10.21
2016-10-06T04:05:10.483Z,10.17
2016-10-06T04:06:20.751Z,10.21
2016-10-06T04:07:30.745Z,10.26
2016-10-06T04:08:40.710Z,10.23
2016-10-06T04:09:50.058Z,10.33
2016-10-06T04:11:00.349Z,10.29
2016-10-06T04:12:10.343Z,10.32
2016-10-06T04:13:20.621Z,10.41
2016-10-06T04:14:30.283Z,10.39
2016-10-06T04:15:39.970Z,10.44
2016-10-06T04:16:50.264Z,10.42
2016-10-06T04:18:00.539Z,10.36
2016-10-06T04:19:10.210Z,10.47
2016-10-06T04:20:20.505Z,10.42
2016-10-06T04:21:30.798Z,10.46
2016-10-06T04:22:41.086Z,10.51
2016-10-06T04:23:51.371Z,10.57
2016-10-06T04:25:01.660Z,10.47
2016-10-06T04:26:11.952Z,10.46
2016-10-06T04:27:21.931Z,10.54
2016-10-06T04:28:31.936Z,10.55
2016-10-06T04:29:42.224Z,10.49
2016-10-06T04:30:52.206Z,10.52
2016-10-06T04:32:02.176Z,10.49
2016-10-06T04:33:11.844Z,10.47
2016-10-06T04:34:22.136Z,10.52
2016-10-06T04:35:32.112Z,10.57
2016-10-06T04:36:42.091Z,10.51
2016-10-06T04:37:52.377Z,10.59
2016-10-06T04:39:02.369Z,10.44
2016-10-06T04:40:12.356Z,10.57
2016-10-06T04:41:22.026Z,10.58
2016-10-06T04:42:32.004Z,10.61
2016-10-06T04:43:41.973Z,10.66
2016-10-06T04:44:51.956Z,10.67
2016-10-06T04:46:02.249Z,10.55
2016-10-06T04:47:12.544Z,10.65
2016-10-06T04:48:22.511Z,10.69
2016-10-06T04:49:32.792Z,10.7
2016-10-06T04:50:42.761Z,10.7
2016-10-06T04:51:52.737Z,10.61
2016-10-06T04:53:02.737Z,10.72
2016-10-06T04:54:12.699Z,10.77
2016-10-06T04:55:22.975Z,10.77
2016-10-06T04:56:32.643Z,10.77
2016-10-06T04:57:42.928Z,10.79
2016-10-06T04:58:53.222Z,10.77
2016-10-06T05:00:03.498Z,10.84
2016-10-06T05:01:13.189Z,10.75
2016-10-06T05:02:23.464Z,10.84
2016-10-06T05:03:33.757Z,10.91
2016-10-06T05:04:43.725Z,10.88
2016-10-06T05:05:54.015Z,10.87
2016-10-06T05:07:04.293Z,10.9
2016-10-06T05:08:14.274Z,10.97
2016-10-06T05:09:24.578Z,11
2016-10-06T05:10:34.568Z,10.98
2016-10-06T05:11:44.854Z,11.1
2016-10-06T05:12:55.140Z,11.05
2016-10-06T05:14:05.118Z,11.06
2016-10-06T05:15:15.439Z,11.13
2016-10-06T05:16:25.411Z,11.03
2016-10-06T05:17:35.707Z,11.08
2016-10-06T05:18:45.682Z,11.05
2016-10-06T05:19:55.655Z,11.1
2016-10-06T05:21:05.317Z,11.08
2016-10-06T05:22:14.988Z,11.09
2016-10-06T05:23:25.264Z,11.03
2016-10-06T05:24:35.539Z,11.06
2016-10-06T05:25:45.839Z,11.03
2016-10-06T05:26:55.815Z,11.06
2016-10-06T05:28:05.796Z,11.09
2016-10-06T05:29:15.765Z,11.08
2016-10-06T05:30:25.117Z,11.02
2016-10-06T05:31:34.787Z,11.08
2016-10-06T05:32:44.753Z,11.12
2016-10-06T05:33:55.054Z,11.12
2016-10-06T05:35:05.347Z,11.12
2016-10-06T05:36:15.633Z,11.1
2016-10-06T05:37:25.608Z,11.2
2016-10-06T05:38:35.907Z,11.27
2016-10-06T05:39:45.913Z,11.26
2016-10-06T05:40:56.194Z,11.18
2016-10-06T05:42:06.483Z,11.24
2016-10-06T05:43:16.794Z,11.16
2016-10-06T05:44:27.085Z,11.27
2016-10-06T05:45:37.358Z,11.31
2016-10-06T05:46:47.332Z,11.34
2016-10-06T05:47:57.320Z,11.38
2016-10-06T05:49:07.312Z,11.35
2016-10-06T05:50:17.609Z,11.41
2016-10-06T05:51:26.953Z,11.35
2016-10-06T05:52:37.236Z,11.39
2016-10-06T05:53:47.229Z,11.34
2016-10-06T05:54:57.218Z,11.45
2016-10-06T05:56:07.507Z,11.45
2016-10-06T05:57:17.488Z,11.49
2016-10-06T05:58:27.486Z,11.61
2016-10-06T05:59:37.473Z,11.61
2016-10-06T06:00:47.450Z,11.63
2016-10-06T06:01:57.424Z,11.7
2016-10-06T06:03:07.719Z,11.73
2016-10-06T06:04:18.000Z,11.71
2016-10-06T06:05:28.275Z,11.81
2016-10-06T06:06:38.561Z,11.76
2016-10-06T06:07:48.539Z,11.86
2016-10-06T06:08:58.817Z,11.84
2016-10-06T06:10:08.484Z,11.79
2016-10-06T06:11:18.150Z,11.78
2016-10-06T06:12:28.436Z,11.85
2016-10-06T06:13:38.412Z,11.84
2016-10-06T06:14:48.704Z,11.89
2016-10-06T06:15:58.680Z,11.95
2016-10-06T06:17:08.358Z,12.04
2016-10-06T06:18:18.634Z,12.16
2016-10-06T06:19:28.609Z,12.26
2016-10-06T06:20:38.911Z,12.25
2016-10-06T06:21:49.180Z,12.36
2016-10-06T06:22:59.150Z,12.29
2016-10-06T06:24:09.443Z,12.28
2016-10-06T06:25:19.740Z,12.4
2016-10-06T06:26:29.723Z,12.34
2016-10-06T06:27:39.697Z,12.48
2016-10-06T06:28:49.983Z,12.43
2016-10-06T06:29:59.960Z,12.43
2016-10-06T06:31:10.248Z,12.44
2016-10-06T06:32:20.539Z,12.45
2016-10-06T06:33:30.527Z,12.47
2016-10-06T06:34:40.834Z,12.47
2016-10-06T06:35:50.809Z,12.44
2016-10-06T06:37:00.802Z,12.38
2016-10-06T06:38:11.095Z,12.43
2016-10-06T06:39:21.374Z,12.43
2016-10-06T06:40:31.663Z,12.44
2016-10-06T06:41:41.954Z,12.43
2016-10-06T06:42:51.926Z,12.43
2016-10-06T06:44:02.208Z,12.43
2016-10-06T06:45:12.179Z,12.47
2016-10-06T06:46:22.156Z,12.58
2016-10-06T06:47:32.452Z,12.62
2016-10-06T06:48:42.771Z,12.59
2016-10-06T06:49:52.141Z,12.7
2016-10-06T06:51:01.808Z,12.59
2016-10-06T06:52:11.789Z,12.61
2016-10-06T06:53:22.155Z,12.51
2016-10-06T06:54:32.436Z,12.45
2016-10-06T06:55:42.725Z,12.44
2016-10-06T06:56:52.725Z,12.36
2016-10-06T06:58:03.014Z,12.38
2016-10-06T06:59:13.307Z,12.37
2016-10-06T07:00:23.296Z,12.36
2016-10-06T07:01:33.580Z,12.4
2016-10-06T07:02:43.560Z,12.43
2016-10-06T07:03:53.547Z,12.41
2016-10-06T07:05:03.203Z,12.44
2016-10-06T07:06:13.192Z,12.47
2016-10-06T07:07:23.488Z,12.52
2016-10-06T07:08:33.788Z,12.48
2016-10-06T07:09:43.764Z,12.55
2016-10-06T07:10:54.071Z,12.53
2016-10-06T07:12:04.044Z,12.59
2016-10-06T07:13:14.337Z,12.63
2016-10-06T07:14:24.312Z,12.58
2016-10-06T07:15:34.284Z,12.59
2016-10-06T07:16:43.967Z,12.65
2016-10-06T07:17:54.252Z,12.56
2016-10-06T07:19:04.519Z,12.61
2016-10-06T07:20:13.896Z,12.7
2016-10-06T07:21:24.181Z,12.7
2016-10-06T07:22:34.705Z,12.63
2016-10-06T07:23:44.681Z,12.73
2016-10-06T07:24:54.653Z,12.66
2016-10-06T07:26:04.640Z,12.78
2016-10-06T07:27:14.965Z,12.71
2016-10-06T07:28:25.267Z,12.74
2016-10-06T07:29:35.565Z,12.78
2016-10-06T07:30:45.848Z,12.8
2016-10-06T07:31:55.827Z,12.71
2016-10-06T07:33:05.861Z,12.88
2016-10-06T07:34:15.843Z,12.84
2016-10-06T07:35:25.523Z,12.8
2016-10-06T07:36:35.831Z,12.81
2016-10-06T07:37:45.812Z,12.8
2016-10-06T07:38:56.105Z,12.8
2016-10-06T07:40:06.084Z,12.78
2016-10-06T07:41:16.381Z,12.81
2016-10-06T07:42:26.692Z,12.66
2016-10-06T07:43:36.355Z,12.74
2016-10-06T07:44:46.647Z,12.74
2016-10-06T07:45:56.318Z,12.83
2016-10-06T07:47:06.295Z,12.76
2016-10-06T07:48:15.961Z,12.81
2016-10-06T07:49:26.248Z,12.83
2016-10-06T07:50:35.918Z,12.81
2016-10-06T07:51:46.195Z,12.78
2016-10-06T07:52:56.528Z,12.81
2016-10-06T07:54:06.819Z,12.73
2016-10-06T07:55:17.105Z,12.63
2016-10-06T07:56:27.092Z,12.73
2016-10-06T07:57:37.074Z,12.81
2016-10-06T07:58:47.362Z,12.66
2016-10-06T07:59:57.655Z,12.73
2016-10-06T08:01:07.634Z,12.55
2016-10-06T08:02:17.592Z,12.61
2016-10-06T08:03:27.878Z,12.7
2016-10-06T08:04:38.167Z,12.66
2016-10-06T08:05:48.147Z,12.76
2016-10-06T08:06:58.117Z,12.71
2016-10-06T08:08:07.784Z,12.81
2016-10-06T08:09:18.076Z,12.8
2016-10-06T08:10:28.435Z,12.86
2016-10-06T08:11:38.430Z,12.81
2016-10-06T08:12:48.408Z,12.8
2016-10-06T08:13:58.399Z,12.89
2016-10-06T08:15:08.691Z,12.91
2016-10-06T08:16:18.986Z,13.02
2016-10-06T08:17:29.275Z,13.1
2016-10-06T08:18:39.585Z,13.09
2016-10-06T08:19:49.884Z,13.14
2016-10-06T08:20:59.882Z,13.16
2016-10-06T08:22:09.914Z,13.39
2016-10-06T08:23:19.888Z,13.37
2016-10-06T08:24:30.178Z,13.5
2016-10-06T08:25:40.200Z,13.58
2016-10-06T08:26:50.525Z,13.6
2016-10-06T08:28:00.491Z,13.7
2016-10-06T08:29:10.472Z,13.88
2016-10-06T08:30:20.458Z,13.93
2016-10-06T08:31:30.741Z,14.09
2016-10-06T08:32:40.727Z,14.15
2016-10-06T08:33:51.008Z,14.36
2016-10-06T08:35:01.302Z,14.51
2016-10-06T08:36:11.287Z,14.53
2016-10-06T08:37:21.580Z,14.69
2016-10-06T08:38:31.242Z,14.9
2016-10-06T08:39:41.256Z,15.01
2016-10-06T08:40:51.543Z,15.01
2016-10-06T08:42:01.513Z,15.1
2016-10-06T08:43:11.497Z,15.2
2016-10-06T08:44:21.472Z,15.25
2016-10-06T08:45:31.155Z,15.27
2016-10-06T08:46:41.438Z,15.13
2016-10-06T08:47:51.113Z,15.15
2016-10-06T08:49:01.092Z,15.25
2016-10-06T08:50:11.085Z,15.31
2016-10-06T08:51:21.402Z,15.34
2016-10-06T08:52:31.705Z,15.33
2016-10-06T08:53:41.994Z,15.34
2016-10-06T08:54:51.982Z,15.25
2016-10-06T08:56:02.269Z,15.22
2016-10-06T08:57:12.262Z,15.04
2016-10-06T08:58:22.250Z,14.89
2016-10-06T08:59:32.545Z,14.85
2016-10-06T09:00:42.837Z,14.71
2016-10-06T09:01:52.505Z,14.64
2016-10-06T09:03:02.810Z,14.59
2016-10-06T09:04:12.796Z,14.63
2016-10-06T09:05:22.770Z,14.64
2016-10-06T09:06:33.070Z,14.94
2016-10-06T09:07:43.033Z,14.95
2016-10-06T09:08:53.318Z,15.07
2016-10-06T09:10:03.612Z,15.05
2016-10-06T09:11:13.592Z,15.08
2016-10-06T09:12:23.870Z,15.07
2016-10-06T09:13:34.166Z,15.07
2016-10-06T09:14:44.478Z,15.02
2016-10-06T09:15:54.778Z,15
2016-10-06T09:17:05.071Z,14.86
2016-10-06T09:18:15.363Z,14.94
2016-10-06T09:19:25.031Z,14.87
2016-10-06T09:20:34.722Z,14.75
2016-10-06T09:21:44.424Z,14.93
2016-10-06T09:22:54.405Z,14.95
2016-10-06T09:24:04.394Z,15.1
2016-10-06T09:25:14.699Z,15.25
2016-10-06T09:26:25.001Z,15.35
2016-10-06T09:27:35.288Z,15.41
2016-10-06T09:28:45.281Z,15.49
2016-10-06T09:29:55.575Z,15.55
2016-10-06T09:31:04.941Z,15.68
2016-10-06T09:32:14.933Z,15.74
2016-10-06T09:33:24.926Z,15.62
2016-10-06T09:34:35.226Z,15.74
2016-10-06T09:35:45.518Z,15.68
2016-10-06T09:36:55.811Z,15.67
2016-10-06T09:38:05.804Z,15.63
2016-10-06T09:39:16.098Z,15.67
2016-10-06T09:40:26.394Z,15.73
2016-10-06T09:41:36.699Z,15.86
2016-10-06T09:42:47.008Z,16.06
2016-10-06T09:43:56.990Z,15.99
2016-10-06T09:45:07.284Z,15.99
2016-10-06T09:46:17.588Z,16.08
2016-10-06T09:47:27.571Z,15.93
2016-10-06T09:48:37.850Z,15.78
2016-10-06T09:49:47.839Z,15.65
2016-10-06T09:50:58.355Z,15.55
2016-10-06T09:52:08.638Z,15.6
2016-10-06T09:53:18.608Z,15.78
2016-10-06T09:54:28.906Z,15.74
2016-10-06T09:55:38.907Z,15.88
2016-10-06T09:56:49.215Z,15.83
2016-10-06T09:57:59.197Z,15.83
2016-10-06T09:59:09.495Z,15.88
2016-10-06T10:00:19.786Z,15.88
2016-10-06T10:01:30.087Z,15.88
2016-10-06T10:02:40.372Z,15.96
2016-10-06T10:03:50.354Z,16.11
2016-10-06T10:05:00.361Z,16.33
2016-10-06T10:06:10.340Z,16.39
2016-10-06T10:07:20.644Z,16.55
2016-10-06T10:08:30.666Z,16.69
2016-10-06T10:09:40.654Z,16.73
2016-10-06T10:10:50.948Z,16.94
2016-10-06T10:12:01.227Z,17.06
2016-10-06T10:13:11.518Z,17.1
2016-10-06T10:14:21.805Z,17.13
2016-10-06T10:15:31.488Z,17.13
2016-10-06T10:16:41.788Z,17.21
2016-10-06T10:17:51.764Z,17.24
2016-10-06T10:19:01.752Z,17.24
2016-10-06T10:20:11.743Z,17.17
2016-10-06T10:21:22.040Z,17.2
2016-10-06T10:22:32.332Z,17.12
2016-10-06T10:23:42.319Z,17.07
2016-10-06T10:24:52.291Z,17.02
2016-10-06T10:26:02.279Z,16.92
2016-10-06T10:27:12.588Z,16.99
2016-10-06T10:28:22.902Z,17.03
2016-10-06T10:29:33.283Z,17
2016-10-06T10:30:43.569Z,16.82
2016-10-06T10:31:53.240Z,16.82
2016-10-06T10:33:02.923Z,16.7
2016-10-06T10:34:12.919Z,16.58
2016-10-06T10:35:22.915Z,16.63
2016-10-06T10:36:32.917Z,16.66
2016-10-06T10:37:43.221Z,16.97
2016-10-06T10:38:53.498Z,17.18
2016-10-06T10:40:03.821Z,17.43
2016-10-06T10:41:13.808Z,17.55
2016-10-06T10:42:24.115Z,17.71
2016-10-06T10:43:34.104Z,17.57
2016-10-06T10:44:43.468Z,17.43
2016-10-06T10:45:53.453Z,17.28
2016-10-06T10:47:03.438Z,17.22
2016-10-06T10:48:13.519Z,17.15
2016-10-06T10:49:23.502Z,17.07
2016-10-06T10:50:33.787Z,17.1
2016-10-06T10:51:43.778Z,17.02
2016-10-06T10:52:54.080Z,16.77
2016-10-06T10:54:04.384Z,16.55
2016-10-06T10:55:14.683Z,16.47
2016-10-06T10:56:24.981Z,16.47
2016-10-06T10:57:34.651Z,16.29
2016-10-06T10:58:44.365Z,16.21
2016-10-06T10:59:54.655Z,15.93
2016-10-06T11:01:04.641Z,15.89
2016-10-06T11:02:14.944Z,15.8
2016-10-06T11:03:24.639Z,15.6
2016-10-06T11:04:34.617Z,15.43
2016-10-06T11:05:44.908Z,15.47
2016-10-06T11:06:54.904Z,15.31
2016-10-06T11:08:04.901Z,15.31
2016-10-06T11:09:15.193Z,15.23
2016-10-06T11:10:25.421Z,15.26
2016-10-06T11:11:35.701Z,15.18
2016-10-06T11:12:45.929Z,15.27
2016-10-06T11:13:55.324Z,15.23
2016-10-06T11:15:05.631Z,15.08
2016-10-06T11:16:15.313Z,15.07
2016-10-06T11:17:25.605Z,14.82
2016-10-06T11:18:35.593Z,14.89
2016-10-06T11:19:45.267Z,14.79
2016-10-06T11:20:55.556Z,14.71
2016-10-06T11:22:05.540Z,14.66
2016-10-06T11:23:15.834Z,14.69
2016-10-06T11:24:25.811Z,14.67
2016-10-06T11:25:35.797Z,14.69
2016-10-06T11:26:46.088Z,14.59
2016-10-06T11:27:56.082Z,14.6
2016-10-06T11:29:06.061Z,14.59
2016-10-06T11:30:16.042Z,14.49
2016-10-06T11:31:26.014Z,14.48
2016-10-06T11:32:36.311Z,14.39
2016-10-06T11:33:46.284Z,14.49
2016-10-06T11:34:56.268Z,14.48
2016-10-06T11:36:06.250Z,14.46
2016-10-06T11:37:16.549Z,14.45
2016-10-06T11:38:26.564Z,14.42
2016-10-06T11:39:36.861Z,14.45
2016-10-06T11:40:46.836Z,14.57
2016-10-06T11:41:57.127Z,14.6
2016-10-06T11:43:07.441Z,14.67
2016-10-06T11:44:17.422Z,14.6
2016-10-06T11:45:27.104Z,14.53
2016-10-06T11:46:36.801Z,14.63
2016-10-06T11:47:47.088Z,14.69
2016-10-06T11:48:57.379Z,14.7
2016-10-06T11:50:07.357Z,14.75
2016-10-06T11:51:17.337Z,14.86
2016-10-06T11:52:27.643Z,14.89
2016-10-06T11:53:37.931Z,14.85
2016-10-06T11:54:48.230Z,14.93
2016-10-06T11:55:58.200Z,14.93
2016-10-06T11:57:07.875Z,15.01
2016-10-06T11:58:17.853Z,15
2016-10-06T11:59:27.848Z,14.95
2016-10-06T12:00:38.140Z,14.93
2016-10-06T12:01:48.441Z,14.89
2016-10-06T12:02:58.727Z,14.87
2016-10-06T12:04:08.697Z,14.87
2016-10-06T12:05:18.982Z,14.87
2016-10-06T12:06:29.287Z,14.71
2016-10-06T12:07:39.271Z,14.7
2016-10-06T12:08:49.570Z,14.7
2016-10-06T12:09:59.553Z,14.63
2016-10-06T12:11:09.841Z,14.51
2016-10-06T12:12:19.824Z,14.46
2016-10-06T12:13:30.136Z,14.44
2016-10-06T12:14:40.419Z,14.41
2016-10-06T12:15:50.823Z,14.36
2016-10-06T12:17:01.129Z,14.33
2016-10-06T12:18:10.516Z,14.33
2016-10-06T12:19:20.498Z,14.28
2016-10-06T12:20:30.481Z,14.23
2016-10-06T12:21:40.481Z,14.23
2016-10-06T12:22:50.456Z,14.15
2016-10-06T12:24:00.850Z,14.21
2016-10-06T12:25:10.828Z,14.23
2016-10-06T12:26:20.814Z,14.2
2016-10-06T12:27:31.112Z,14.16
2016-10-06T12:28:41.404Z,14.19
2016-10-06T12:29:50.776Z,14.21
2016-10-06T12:31:00.774Z,14.11
2016-10-06T12:32:11.097Z,14.09
2016-10-06T12:33:21.384Z,14.03
2016-10-06T12:34:31.380Z,14.02
2016-10-06T12:35:41.673Z,14.05
2016-10-06T12:36:51.666Z,14.06
2016-10-06T12:38:01.968Z,14.06
2016-10-06T12:39:11.973Z,14.02
2016-10-06T12:40:22.279Z,13.95
2016-10-06T12:41:32.258Z,13.95
2016-10-06T12:42:42.539Z,13.86
2016-10-06T12:43:52.850Z,13.94
2016-10-06T12:45:03.164Z,13.88
2016-10-06T12:46:13.446Z,13.88
2016-10-06T12:47:23.741Z,13.97
2016-10-06T12:48:34.052Z,13.88
2016-10-06T12:49:44.036Z,13.86
2016-10-06T12:50:54.335Z,13.87
2016-10-06T12:52:04.622Z,13.81
2016-10-06T12:53:14.595Z,13.88
2016-10-06T12:54:24.571Z,13.84
2016-10-06T12:55:34.574Z,13.75
2016-10-06T12:56:44.560Z,13.72
2016-10-06T12:57:54.846Z,13.69
2016-10-06T12:59:04.842Z,13.7
2016-10-06T13:00:15.139Z,13.78
2016-10-06T13:01:25.132Z,13.75
2016-10-06T13:02:35.423Z,13.78
2016-10-06T13:03:45.717Z,13.73
2016-10-06T13:04:55.997Z,13.68
2016-10-06T13:06:06.293Z,13.68
2016-10-06T13:07:15.965Z,13.69
2016-10-06T13:08:26.267Z,13.69
2016-10-06T13:09:36.565Z,13.72
2016-10-06T13:10:46.875Z,13.65
2016-10-06T13:11:56.878Z,13.65
2016-10-06T13:13:06.540Z,13.65
2016-10-06T13:14:16.522Z,13.68
2016-10-06T13:15:26.821Z,13.68
2016-10-06T13:16:37.452Z,13.62
2016-10-06T13:17:47.756Z,13.7
2016-10-06T13:18:58.047Z,13.83
2016-10-06T13:20:08.037Z,13.75
2016-10-06T13:21:18.051Z,13.76
2016-10-06T13:22:28.361Z,13.81
2016-10-06T13:23:38.691Z,13.72
2016-10-06T13:24:48.693Z,13.7
2016-10-06T13:25:59.077Z,13.7
2016-10-06T13:27:08.490Z,13.69
2016-10-06T13:28:18.473Z,13.63
2016-10-06T13:29:28.484Z,13.65
2016-10-06T13:30:38.513Z,13.63
2016-10-06T13:31:48.848Z,13.53
2016-10-06T13:32:58.253Z,13.55
2016-10-06T13:34:08.590Z,13.44
2016-10-06T13:35:18.588Z,13.32
2016-10-06T13:36:28.604Z,13.36
2016-10-06T13:37:38.806Z,13.21
2016-10-06T13:38:49.133Z,13.32
2016-10-06T13:39:59.121Z,13.32
2016-10-06T13:41:09.442Z,13.28
2016-10-06T13:42:19.157Z,13.24
2016-10-06T13:43:29.473Z,13.19
2016-10-06T13:44:39.860Z,13.21
2016-10-06T13:45:51.606Z,13.14
2016-10-06T13:47:02.141Z,13.06
2016-10-06T13:48:12.879Z,13.09
2016-10-06T13:49:22.988Z,12.94
2016-10-06T13:50:33.221Z,12.95
2016-10-06T13:51:43.517Z,12.92
2016-10-06T13:52:53.819Z,12.83
2016-10-06T13:54:04.132Z,12.89
2016-10-06T13:55:14.107Z,12.84
2016-10-06T13:56:24.409Z,12.84
2016-10-06T13:57:34.702Z,12.89
2016-10-06T13:58:45.003Z,12.89
2016-10-06T13:59:55.328Z,12.83
2016-10-06T14:01:05.314Z,12.88
2016-10-06T14:02:15.609Z,12.84
2016-10-06T14:03:25.923Z,12.81
2016-10-06T14:04:35.897Z,12.74
2016-10-06T14:05:46.245Z,12.84
2016-10-06T14:06:56.245Z,12.71
2016-10-06T14:08:06.220Z,12.74
2016-10-06T14:09:16.221Z,12.65
2016-10-06T14:10:26.526Z,12.8
2016-10-06T14:11:36.493Z,12.76
2016-10-06T14:12:46.218Z,12.76
2016-10-06T14:13:56.530Z,12.71
2016-10-06T14:15:06.543Z,12.61
2016-10-06T14:16:16.540Z,12.62
2016-10-06T14:17:26.228Z,12.61
2016-10-06T14:18:36.541Z,12.63
2016-10-06T14:19:46.840Z,12.61
2016-10-06T14:20:56.520Z,12.62
2016-10-06T14:22:06.544Z,12.59
2016-10-06T14:23:16.853Z,12.59
2016-10-06T14:24:26.539Z,12.59
2016-10-06T14:25:37.076Z,12.58
2016-10-06T14:26:47.382Z,12.61
2016-10-06T14:27:57.696Z,12.58
2016-10-06T14:29:07.997Z,12.61
2016-10-06T14:30:17.670Z,12.53
2016-10-06T14:31:27.969Z,12.61
2016-10-06T14:32:38.274Z,12.61
2016-10-06T14:33:48.583Z,12.63
2016-10-06T14:34:58.572Z,12.61
2016-10-06T14:36:08.560Z,12.58
2016-10-06T14:37:18.854Z,12.56
2016-10-06T14:38:28.827Z,12.61
2016-10-06T14:39:38.804Z,12.55
2016-10-06T14:40:49.121Z,12.61
2016-10-06T14:41:59.138Z,12.59
2016-10-06T14:43:09.433Z,12.59
2016-10-06T14:44:19.762Z,12.62
2016-10-06T14:45:30.051Z,12.59
2016-10-06T14:46:39.431Z,12.61
2016-10-06T14:47:49.710Z,12.55
2016-10-06T14:49:00.007Z,12.63
2016-10-06T14:50:10.547Z,12.73
2016-10-06T14:51:20.556Z,12.74
2016-10-06T14:52:30.861Z,12.76
2016-10-06T14:53:40.857Z,12.7
2016-10-06T14:54:50.884Z,12.8
2016-10-06T14:56:01.179Z,12.83
2016-10-06T14:57:11.490Z,12.8
2016-10-06T14:58:21.485Z,12.8
2016-10-06T14:59:31.786Z,12.77
2016-10-06T15:00:41.181Z,12.74
2016-10-06T15:01:51.478Z,12.83
2016-10-06T15:03:01.483Z,12.74
2016-10-06T15:04:11.788Z,12.69
2016-10-06T15:05:21.776Z,12.77
2016-10-06T15:06:32.116Z,12.81
2016-10-06T15:07:42.104Z,12.73
2016-10-06T15:08:52.410Z,12.76
2016-10-06T15:10:02.105Z,12.74
2016-10-06T15:11:11.794Z,12.77
2016-10-06T15:12:21.820Z,12.74
2016-10-06T15:13:31.509Z,12.76
2016-10-06T15:14:41.822Z,12.73
2016-10-06T15:15:52.367Z,12.73
2016-10-06T15:17:02.721Z,12.65
2016-10-06T15:18:12.712Z,12.62
2016-10-06T15:19:23.031Z,12.73
2016-10-06T15:20:33.318Z,12.62
2016-10-06T15:21:43.309Z,12.69
2016-10-06T15:22:53.350Z,12.66
2016-10-06T15:24:03.691Z,12.58
2016-10-06T15:25:14.010Z,12.59
2016-10-06T15:26:23.706Z,12.61
2016-10-06T15:27:34.032Z,12.77
2016-10-06T15:28:44.041Z,12.71
2016-10-06T15:29:54.342Z,12.76
2016-10-06T15:31:04.334Z,12.73
2016-10-06T15:32:14.341Z,12.56
2016-10-06T15:33:24.047Z,12.55
2016-10-06T15:34:34.374Z,12.59
2016-10-06T15:35:44.429Z,12.55